createdAt,value
2022-08-06T00:00:07.982Z,43.10
2022-08-06T00:02:31.728Z,42.49
2022-08-06T00:05:03.836Z,41.62
2022-08-06T00:07:47.733Z,42.06
2022-08-06T00:10:19.562Z,42.29
2022-08-06T00:13:04.658Z,42.47
2022-08-06T00:16:06.512Z,41.95
2022-08-06T00:18:26.413Z,41.23
2022-08-06T00:21:01.161Z,42.34
2022-08-06T00:23:35.076Z,40.15
2022-08-06T00:26:28.699Z,42.62
2022-08-06T00:28:56.424Z,44.42
2022-08-06T00:31:30.319Z,43.95
2022-08-06T00:34:05.168Z,43.44
2022-08-06T00:36:35.516Z,42.89
2022-08-06T00:39:26.030Z,42.41
2022-08-06T00:42:00.157Z,43.10
2022-08-06T00:44:31.574Z,43.04
2022-08-06T00:47:23.265Z,42.46
2022-08-06T00:50:06.605Z,41.08
2022-08-06T00:52:35.364Z,42.19
2022-08-06T00:55:17.721Z,42.34
2022-08-06T00:57:51.257Z,42.71
2022-08-06T01:00:30.676Z,41.42
2022-08-06T01:03:03.659Z,42.91
2022-08-06T01:06:53.257Z,43.41
2022-08-06T01:08:25.855Z,45.13
2022-08-06T01:10:58.602Z,45.29
2022-08-06T01:14:03.112Z,44.41
2022-08-06T01:16:28.537Z,42.45
2022-08-06T01:19:21.157Z,44.37
2022-08-06T01:22:39.118Z,44.20
2022-08-06T01:25:46.105Z,44.11
2022-08-06T01:28:29.698Z,43.00
2022-08-06T01:31:09.006Z,43.07
2022-08-06T01:34:04.924Z,41.92
2022-08-06T01:36:48.119Z,43.85
2022-08-06T01:39:22.854Z,44.25
2022-08-06T01:42:12.585Z,43.80
2022-08-06T01:44:45.106Z,43.47
2022-08-06T01:47:18.106Z,43.12
2022-08-06T01:50:00.599Z,44.48
2022-08-06T01:52:43.183Z,45.70
2022-08-06T01:55:59.074Z,44.98
2022-08-06T01:58:33.378Z,45.92
2022-08-06T02:01:04.360Z,45.73
2022-08-06T02:03:58.667Z,45.43
2022-08-06T02:06:38.812Z,44.53
2022-08-06T02:09:16.521Z,42.47
2022-08-06T02:12:04.016Z,44.20
2022-08-06T02:14:58.506Z,43.02
2022-08-06T02:18:03.467Z,43.50
2022-08-06T02:20:48.486Z,43.98
2022-08-06T02:23:25.879Z,45.04
2022-08-06T02:26:09.102Z,43.90
2022-08-06T02:28:39.807Z,44.31
2022-08-06T02:31:12.603Z,45.08
2022-08-06T02:34:03.384Z,45.66
2022-08-06T02:36:50.617Z,46.67
2022-08-06T02:39:29.874Z,46.37
2022-08-06T02:42:15.067Z,46.67
2022-08-06T02:44:59.234Z,46.14
2022-08-06T02:47:53.221Z,46.73
2022-08-06T02:50:37.344Z,45.95
2022-08-06T02:53:23.864Z,46.46
2022-08-06T02:56:10.510Z,49.10
2022-08-06T02:58:45.267Z,49.22
2022-08-06T03:01:43.867Z,48.62
2022-08-06T03:04:15.347Z,47.83
2022-08-06T03:06:44.910Z,47.84
2022-08-06T03:09:17.800Z,47.29
2022-08-06T03:11:50.552Z,47.99
2022-08-06T03:15:04.724Z,47.94
2022-08-06T03:17:20.705Z,47.95
2022-08-06T03:19:55.238Z,48.00
2022-08-06T03:22:35.371Z,47.82
2022-08-06T03:25:08.984Z,47.22
2022-08-06T03:27:43.126Z,46.85
2022-08-06T03:30:31.371Z,47.25
2022-08-06T03:33:06.901Z,47.28
2022-08-06T03:35:50.997Z,46.90
2022-08-06T03:38:21.401Z,47.24
2022-08-06T03:40:55.229Z,47.83
2022-08-06T03:43:27.388Z,47.73
2022-08-06T03:46:01.071Z,48.43
2022-08-06T03:48:38.045Z,48.00
2022-08-06T03:51:12.663Z,47.87
2022-08-06T03:53:50.122Z,48.56
2022-08-06T03:56:31.042Z,47.21
2022-08-06T03:59:04.539Z,48.09
2022-08-06T04:01:43.119Z,47.63
2022-08-06T04:04:26.496Z,47.86
2022-08-06T04:07:03.932Z,47.12
2022-08-06T04:09:59.393Z,48.10
2022-08-06T04:12:42.824Z,47.65
2022-08-06T04:15:32.426Z,47.79
2022-08-06T04:18:08.316Z,48.74
2022-08-06T04:20:43.738Z,49.18
2022-08-06T04:23:13.964Z,48.32
2022-08-06T04:25:44.254Z,47.03
2022-08-06T04:28:12.715Z,47.59
2022-08-06T04:30:47.540Z,46.96
2022-08-06T04:33:34.728Z,48.74
2022-08-06T04:36:17.967Z,47.85
2022-08-06T04:39:38.069Z,46.46
2022-08-06T04:42:18.100Z,47.46
2022-08-06T04:44:45.851Z,47.02
2022-08-06T04:47:14.946Z,46.41
2022-08-06T04:49:58.007Z,47.00
2022-08-06T04:52:35.496Z,46.60
2022-08-06T04:55:23.852Z,46.96
2022-08-06T04:57:57.011Z,47.01
2022-08-06T05:00:59.289Z,48.63
2022-08-06T05:04:06.712Z,48.76
2022-08-06T05:06:34.680Z,48.15
2022-08-06T05:09:20.694Z,48.01
2022-08-06T05:12:19.184Z,48.05
2022-08-06T05:15:00.785Z,46.94
2022-08-06T05:17:34.725Z,46.38
2022-08-06T05:20:05.574Z,46.25
2022-08-06T05:22:51.845Z,46.72
2022-08-06T05:25:27.674Z,46.64
2022-08-06T05:28:10.252Z,45.93
2022-08-06T05:30:43.140Z,42.88
2022-08-06T05:33:37.280Z,46.30
2022-08-06T05:36:12.020Z,46.26
2022-08-06T05:38:58.741Z,45.91
2022-08-06T05:41:30.296Z,45.12
2022-08-06T05:44:08.059Z,45.62
2022-08-06T05:47:01.445Z,45.68
2022-08-06T05:50:01.306Z,45.28
2022-08-06T05:52:39.089Z,45.42
2022-08-06T05:55:30.068Z,45.23
2022-08-06T05:58:29.648Z,41.77
2022-08-06T06:01:00.413Z,43.86
2022-08-06T06:03:37.973Z,44.10
2022-08-06T06:06:17.713Z,43.81
2022-08-06T06:08:58.568Z,43.01
2022-08-06T06:11:55.431Z,44.88
2022-08-06T06:14:36.692Z,44.95
2022-08-06T06:17:13.754Z,43.27
2022-08-06T06:19:51.942Z,41.99
2022-08-06T06:22:43.375Z,42.06
2022-08-06T06:25:19.662Z,41.84
2022-08-06T06:28:00.350Z,40.87
2022-08-06T06:30:52.602Z,39.93
2022-08-06T06:33:41.668Z,40.77
2022-08-06T06:36:24.638Z,41.72
2022-08-06T06:39:02.268Z,39.58
2022-08-06T06:41:44.818Z,41.71
2022-08-06T06:44:24.248Z,41.04
2022-08-06T06:47:16.434Z,39.56
2022-08-06T06:50:03.352Z,41.53
2022-08-06T06:52:41.348Z,39.03
2022-08-06T06:55:18.784Z,39.17
2022-08-06T06:57:56.144Z,38.77
2022-08-06T07:00:46.497Z,39.00
2022-08-06T07:03:15.775Z,37.74
2022-08-06T07:06:06.051Z,37.62
2022-08-06T07:08:48.165Z,39.61
2022-08-06T07:11:22.406Z,39.88
2022-08-06T07:14:00.369Z,40.00
2022-08-06T07:16:35.754Z,36.15
2022-08-06T07:19:10.586Z,36.44
2022-08-06T07:21:42.567Z,38.20
2022-08-06T07:24:39.863Z,35.73
2022-08-06T07:27:15.505Z,36.74
2022-08-06T07:29:59.746Z,35.56
2022-08-06T07:32:32.610Z,37.73
2022-08-06T07:35:12.764Z,36.56
2022-08-06T07:37:46.606Z,37.12
2022-08-06T07:40:17.203Z,38.44
2022-08-06T07:43:24.340Z,38.78
2022-08-06T07:45:56.473Z,36.51
2022-08-06T07:48:53.068Z,35.99
2022-08-06T07:51:34.473Z,35.01
2022-08-06T07:54:10.044Z,31.39
2022-08-06T07:57:00.677Z,33.08
2022-08-06T07:59:32.148Z,32.88
2022-08-06T08:02:07.126Z,31.07
2022-08-06T08:04:55.749Z,30.81
2022-08-06T08:07:37.600Z,31.90
2022-08-06T08:16:41.753Z,28.19
2022-08-06T08:19:23.492Z,31.52
2022-08-06T08:21:54.301Z,33.08
2022-08-06T08:24:21.506Z,29.98
2022-08-06T08:27:12.495Z,31.42
2022-08-06T08:29:51.134Z,26.47
2022-08-06T08:32:22.670Z,25.98
2022-08-06T08:34:53.540Z,29.31
2022-08-06T08:37:21.985Z,28.79
2022-08-06T08:39:50.382Z,26.65
2022-08-06T08:42:44.029Z,29.24
2022-08-06T08:45:15.875Z,26.61
2022-08-06T08:47:57.406Z,29.15
2022-08-06T08:50:27.411Z,30.31
2022-08-06T08:52:58.599Z,28.00
2022-08-06T08:57:07.245Z,29.06
2022-08-06T08:58:39.533Z,29.57
2022-08-06T09:01:02.124Z,28.69
2022-08-06T09:03:29.932Z,27.76
2022-08-06T09:06:01.167Z,27.38
2022-08-06T09:08:59.083Z,28.78
2022-08-06T09:12:02.842Z,28.14
2022-08-06T09:14:04.262Z,27.47
2022-08-06T09:16:35.571Z,26.58
2022-08-06T09:19:04.006Z,28.21
2022-08-06T09:21:32.363Z,28.20
2022-08-06T09:24:04.828Z,28.21
2022-08-06T09:26:54.702Z,26.84
2022-08-06T09:29:23.528Z,29.80
2022-08-06T09:31:59.167Z,28.18
2022-08-06T09:34:39.026Z,28.36
2022-08-06T09:37:09.917Z,26.10
2022-08-06T09:39:46.328Z,24.77
2022-08-06T09:42:41.353Z,26.51
2022-08-06T09:45:16.507Z,26.79
2022-08-06T09:47:57.761Z,29.17
2022-08-06T09:50:42.661Z,25.89
2022-08-06T09:53:14.415Z,25.39
2022-08-06T09:55:42.525Z,26.22
2022-08-06T09:58:45.015Z,26.35
2022-08-06T10:01:21.063Z,29.66
2022-08-06T10:04:02.259Z,26.55
2022-08-06T10:06:34.506Z,28.35
2022-08-06T10:09:20.971Z,30.77
2022-08-06T10:12:18.456Z,28.05
2022-08-06T10:14:45.999Z,24.75
2022-08-06T10:17:20.675Z,27.63
2022-08-06T10:20:09.801Z,27.73
2022-08-06T10:22:38.299Z,26.86
2022-08-06T10:25:12.998Z,27.02
2022-08-06T10:27:41.104Z,28.24
2022-08-06T10:30:15.489Z,27.51
2022-08-06T10:32:52.330Z,30.02
2022-08-06T10:35:29.683Z,28.47
2022-08-06T10:38:03.319Z,28.43
2022-08-06T10:40:58.862Z,29.11
2022-08-06T10:43:34.848Z,30.20
2022-08-06T10:46:06.310Z,28.84
2022-08-06T10:50:20.572Z,27.76
2022-08-06T10:51:55.970Z,28.45
2022-08-06T10:54:19.752Z,32.66
2022-08-06T10:56:49.698Z,27.29
2022-08-06T10:59:25.861Z,25.97
2022-08-06T11:02:14.664Z,25.86
2022-08-06T11:04:45.310Z,29.91
2022-08-06T11:08:09.082Z,29.69
2022-08-06T11:10:27.092Z,26.65
2022-08-06T11:13:10.951Z,28.67
2022-08-06T11:15:39.030Z,27.93
2022-08-06T11:18:12.091Z,28.89
2022-08-06T11:20:42.690Z,25.23
2022-08-06T11:23:29.535Z,24.35
2022-08-06T11:26:01.483Z,22.70
2022-08-06T11:28:28.677Z,22.52
2022-08-06T11:31:01.987Z,23.33
2022-08-06T11:33:33.425Z,24.54
2022-08-06T11:36:01.745Z,25.41
2022-08-06T11:38:56.625Z,25.33
2022-08-06T11:41:54.435Z,24.11
2022-08-06T11:44:21.578Z,23.90
2022-08-06T11:47:17.879Z,24.67
2022-08-06T11:50:00.620Z,23.07
2022-08-06T11:52:39.222Z,22.32
2022-08-06T11:55:08.819Z,22.12
2022-08-06T11:57:49.045Z,20.77
2022-08-06T12:00:21.204Z,21.37
2022-08-06T12:02:54.486Z,21.08
2022-08-06T12:05:23.690Z,23.71
2022-08-06T12:08:14.805Z,20.49
2022-08-06T12:11:18.335Z,22.33
2022-08-06T12:13:53.433Z,21.38
2022-08-06T12:16:33.154Z,22.60
2022-08-06T12:19:01.101Z,21.06
2022-08-06T12:21:36.911Z,21.37
2022-08-06T12:24:04.900Z,20.50
2022-08-06T12:26:36.387Z,21.08
2022-08-06T12:29:04.574Z,21.11
2022-08-06T12:31:44.003Z,20.81
2022-08-06T12:34:31.016Z,21.11
2022-08-06T12:37:00.113Z,21.00
2022-08-06T12:39:48.294Z,19.58
2022-08-06T12:42:22.690Z,19.70
2022-08-06T12:46:05.348Z,20.79
2022-08-06T12:48:11.681Z,23.04
2022-08-06T12:50:42.677Z,19.11
2022-08-06T12:53:32.457Z,21.20
2022-08-06T12:56:07.505Z,20.44
2022-08-06T12:58:41.227Z,23.37
2022-08-06T13:01:16.358Z,21.13
2022-08-06T13:04:08.892Z,21.35
2022-08-06T13:06:40.737Z,22.47
2022-08-06T13:09:10.779Z,25.89
2022-08-06T13:11:41.591Z,23.11
2022-08-06T13:14:18.218Z,20.84
2022-08-06T13:16:56.274Z,21.43
2022-08-06T13:19:32.924Z,20.82
2022-08-06T13:22:11.414Z,22.30
2022-08-06T13:25:03.280Z,20.67
2022-08-06T13:27:37.510Z,19.82
2022-08-06T13:30:35.087Z,23.11
2022-08-06T13:33:11.889Z,21.50
2022-08-06T13:35:41.411Z,21.86
2022-08-06T13:38:16.817Z,21.64
2022-08-06T13:40:56.859Z,24.42
2022-08-06T13:43:40.243Z,24.04
2022-08-06T13:46:20.516Z,24.07
2022-08-06T13:48:58.540Z,23.96
2022-08-06T13:51:54.191Z,24.19
2022-08-06T13:54:23.648Z,23.88
2022-08-06T13:56:52.283Z,24.58
2022-08-06T13:59:21.593Z,25.25
2022-08-06T14:01:49.639Z,26.51
2022-08-06T14:04:25.204Z,25.81
2022-08-06T14:06:54.148Z,26.05
2022-08-06T14:09:29.401Z,25.77
2022-08-06T14:12:20.454Z,26.51
2022-08-06T14:14:48.571Z,28.55
2022-08-06T14:17:20.606Z,27.28
2022-08-06T14:20:14.184Z,29.62
2022-08-06T14:22:43.042Z,26.51
2022-08-06T14:25:22.630Z,27.13
2022-08-06T14:27:51.673Z,26.35
2022-08-06T14:30:30.005Z,29.09
2022-08-06T14:33:10.348Z,29.51
2022-08-06T14:35:51.068Z,29.05
2022-08-06T14:38:54.479Z,27.81
2022-08-06T14:41:50.720Z,28.38
2022-08-06T14:44:41.558Z,30.51
2022-08-06T14:47:56.592Z,30.20
2022-08-06T14:50:00.558Z,29.84
2022-08-06T14:52:30.190Z,29.71
2022-08-06T14:55:07.185Z,30.29
2022-08-06T14:58:03.610Z,32.48
2022-08-06T15:00:34.987Z,30.83
2022-08-06T15:06:00.283Z,32.67
2022-08-06T15:08:32.148Z,33.69
2022-08-06T15:11:00.003Z,33.96
2022-08-06T15:13:36.407Z,33.44
2022-08-06T15:16:11.282Z,33.98
2022-08-06T15:19:28.816Z,33.34
2022-08-06T15:21:54.870Z,33.48
2022-08-06T15:24:25.789Z,34.33
2022-08-06T15:26:58.709Z,36.32
2022-08-06T15:29:26.027Z,36.19
2022-08-06T15:31:58.859Z,37.11
2022-08-06T15:34:29.743Z,36.54
2022-08-06T15:37:03.544Z,36.86
2022-08-06T15:39:52.158Z,37.95
2022-08-06T15:42:22.347Z,36.60
2022-08-06T15:44:52.096Z,36.26
2022-08-06T15:47:21.188Z,36.86
2022-08-06T15:50:02.896Z,36.39
2022-08-06T15:52:33.515Z,37.16
2022-08-06T15:55:16.466Z,37.67
2022-08-06T15:57:50.152Z,37.27
2022-08-06T16:01:04.158Z,37.72
2022-08-06T16:03:56.967Z,38.96
2022-08-06T16:06:28.486Z,41.29
2022-08-06T16:08:59.539Z,39.54
2022-08-06T16:11:27.603Z,40.61
2022-08-06T16:14:19.642Z,40.91
2022-08-06T16:16:47.323Z,41.87
2022-08-06T16:19:21.626Z,42.41
2022-08-06T16:22:07.426Z,42.03
2022-08-06T16:24:37.016Z,41.70
2022-08-06T16:27:04.616Z,39.99
2022-08-06T16:29:32.167Z,39.61
2022-08-06T16:32:03.461Z,39.01
2022-08-06T16:34:36.312Z,39.29
2022-08-06T16:37:28.134Z,39.55
2022-08-06T16:40:05.070Z,39.29
2022-08-06T16:42:35.044Z,41.05
2022-08-06T16:45:11.728Z,39.11
2022-08-06T16:48:21.254Z,38.62
2022-08-06T16:50:36.669Z,39.84
2022-08-06T16:54:08.126Z,39.43
2022-08-06T16:56:00.120Z,38.46
2022-08-06T17:02:20.842Z,39.99
2022-08-06T17:04:24.308Z,39.92
2022-08-06T17:06:58.577Z,37.76
2022-08-06T17:09:29.059Z,37.73
2022-08-06T17:12:15.564Z,38.49
2022-08-06T17:14:52.399Z,39.30
2022-08-06T17:17:23.577Z,40.30
2022-08-06T17:20:08.661Z,41.45
2022-08-06T17:22:38.746Z,39.37
2022-08-06T17:25:08.195Z,39.45
2022-08-06T17:27:57.663Z,40.61
2022-08-06T17:30:26.286Z,41.41
2022-08-06T17:32:54.480Z,44.82
2022-08-06T17:35:23.807Z,56.40
2022-08-06T17:38:15.671Z,67.27
2022-08-06T17:40:49.197Z,73.71
2022-08-06T17:43:22.359Z,78.17
2022-08-06T17:46:02.358Z,77.17
2022-08-06T17:48:32.544Z,79.23
2022-08-06T17:51:09.697Z,80.32
2022-08-06T17:53:52.974Z,73.09
2022-08-06T17:56:30.219Z,74.09
2022-08-06T17:59:06.401Z,75.38
2022-08-06T18:01:46.456Z,74.76
2022-08-06T18:04:22.103Z,73.25
2022-08-06T18:07:10.462Z,68.75
2022-08-06T18:10:11.698Z,69.07
2022-08-06T18:12:27.778Z,67.22
2022-08-06T18:14:58.915Z,66.27
2022-08-06T18:17:59.741Z,64.42
2022-08-06T18:20:28.279Z,63.20
2022-08-06T18:23:00.035Z,64.54
2022-08-06T18:25:57.674Z,64.83
2022-08-06T18:28:31.508Z,62.55
2022-08-06T18:31:02.084Z,62.56
2022-08-06T18:33:46.052Z,62.63
2022-08-06T18:36:15.419Z,60.94
2022-08-06T18:38:44.460Z,62.13
2022-08-06T18:41:15.815Z,61.52
2022-08-06T18:43:57.964Z,61.45
2022-08-06T18:47:02.224Z,59.57
2022-08-06T18:49:16.955Z,60.83
2022-08-06T18:51:48.114Z,58.92
2022-08-06T18:54:21.330Z,57.39
2022-08-06T18:56:54.729Z,58.22
2022-08-06T18:59:28.826Z,55.38
2022-08-06T19:01:58.771Z,55.01
2022-08-06T19:04:28.619Z,55.56
2022-08-06T19:06:59.973Z,54.29
2022-08-06T19:09:34.159Z,53.91
2022-08-06T19:12:12.065Z,54.19
2022-08-06T19:14:44.017Z,54.41
2022-08-06T19:17:22.630Z,54.64
2022-08-06T19:20:18.758Z,54.75
2022-08-06T19:22:47.246Z,55.27
2022-08-06T19:25:41.862Z,53.37
2022-08-06T19:28:36.116Z,54.40
2022-08-06T19:31:05.066Z,51.88
2022-08-06T19:33:34.954Z,52.89
2022-08-06T19:36:15.529Z,50.91
2022-08-06T19:38:53.055Z,50.66
2022-08-06T19:41:59.989Z,51.22
2022-08-06T19:44:28.822Z,52.14
2022-08-06T19:47:04.673Z,50.95
2022-08-06T19:49:40.497Z,50.81
2022-08-06T19:52:09.623Z,50.85
2022-08-06T19:54:41.624Z,49.41
2022-08-06T19:57:13.501Z,50.87
2022-08-06T20:00:52.025Z,49.22
2022-08-06T20:02:50.402Z,48.43
2022-08-06T20:05:18.624Z,49.10
2022-08-06T20:08:10.807Z,47.37
2022-08-06T20:10:42.302Z,47.74
2022-08-06T20:13:10.043Z,46.91
2022-08-06T20:15:47.105Z,46.08
2022-08-06T20:18:16.853Z,45.08
2022-08-06T20:20:44.567Z,46.42
2022-08-06T20:23:16.864Z,47.71
2022-08-06T20:26:08.610Z,45.88
2022-08-06T20:29:09.852Z,46.31
2022-08-06T20:31:22.522Z,45.21
2022-08-06T20:33:59.646Z,46.72
2022-08-06T20:36:34.105Z,44.86
2022-08-06T20:39:03.070Z,44.31
2022-08-06T20:42:04.846Z,43.89
2022-08-06T20:44:20.256Z,44.87
2022-08-06T20:47:46.482Z,45.86
2022-08-06T20:50:01.665Z,42.88
2022-08-06T20:52:25.056Z,45.15
2022-08-06T20:54:57.165Z,44.50
2022-08-06T20:57:28.574Z,43.82
2022-08-06T20:59:57.658Z,41.17
2022-08-06T21:02:34.389Z,42.17
2022-08-06T21:05:13.944Z,42.93
2022-08-06T21:07:57.122Z,44.41
2022-08-06T21:10:26.587Z,43.28
2022-08-06T21:13:01.248Z,44.84
2022-08-06T21:15:54.893Z,43.14
2022-08-06T21:18:20.783Z,43.75
2022-08-06T21:20:54.258Z,43.16
2022-08-06T21:23:41.707Z,42.27
2022-08-06T21:26:16.341Z,42.75
2022-08-06T21:28:52.278Z,41.56
2022-08-06T21:31:22.673Z,44.20
2022-08-06T21:33:55.012Z,46.24
2022-08-06T21:36:25.913Z,49.22
2022-08-06T21:38:59.132Z,48.23
2022-08-06T21:41:59.127Z,48.72
2022-08-06T21:44:47.785Z,48.31
2022-08-06T21:47:32.967Z,48.46
2022-08-06T21:50:25.206Z,47.29
2022-08-06T21:52:58.863Z,48.47
2022-08-06T21:56:36.510Z,47.55
2022-08-06T21:58:19.717Z,47.54
2022-08-06T22:00:50.699Z,48.72
2022-08-06T22:04:36.937Z,48.04
2022-08-06T22:06:37.718Z,47.66
2022-08-06T22:09:20.564Z,47.31
2022-08-06T22:12:39.227Z,47.38
2022-08-06T22:15:00.469Z,47.94
2022-08-06T22:18:00.209Z,47.55
2022-08-06T22:20:24.606Z,47.32
2022-08-06T22:22:55.474Z,48.08
2022-08-06T22:25:26.279Z,48.25
2022-08-06T22:28:02.320Z,48.61
2022-08-06T22:30:36.762Z,48.76
2022-08-06T22:33:10.977Z,48.80
2022-08-06T22:35:58.063Z,49.10
2022-08-06T22:38:37.359Z,48.78
2022-08-06T22:41:10.900Z,49.49
2022-08-06T22:43:55.577Z,49.00
2022-08-06T22:46:27.983Z,50.30
2022-08-06T22:48:58.195Z,49.61
2022-08-06T22:51:28.654Z,50.39
2022-08-06T22:54:26.639Z,51.09
2022-08-06T22:57:04.368Z,51.79
2022-08-06T23:00:12.247Z,53.53
2022-08-06T23:02:27.756Z,54.37
2022-08-06T23:04:57.862Z,53.17
2022-08-06T23:07:27.502Z,52.48
2022-08-06T23:10:13.170Z,51.41
2022-08-06T23:12:44.847Z,52.90
2022-08-06T23:15:29.804Z,52.86
2022-08-06T23:18:09.868Z,52.21
2022-08-06T23:20:50.389Z,52.16
2022-08-06T23:23:22.593Z,51.48
2022-08-06T23:26:03.944Z,51.26
2022-08-06T23:28:37.323Z,51.17
2022-08-06T23:31:11.428Z,53.39
2022-08-06T23:33:54.999Z,53.97
2022-08-06T23:36:34.134Z,53.47
2022-08-06T23:39:10.041Z,51.97
2022-08-06T23:42:01.313Z,51.65
2022-08-06T23:44:34.993Z,52.46
2022-08-06T23:47:53.267Z,51.81
2022-08-06T23:50:14.199Z,58.57
2022-08-06T23:52:51.083Z,61.18
2022-08-06T23:55:33.115Z,60.59
2022-08-06T23:58:05.319Z,61.35
